Terminal Aerodrome Forecast
Issued by NWS

Current Version | Previous Version | Graphics & Text | Print | Product List | Glossary On
Versions: 1 2 3 4 5 6 7 8 9 10 11 12 13 14 15 16 17 18 19 20 21 22 23 24 25 26 27 28 29
000
FTUS41 KRLX 161304 AAA
TAFCKB
TAF AMD
KCKB 161304Z 1613/1712 00000KT 1 1/2SM BR OVC002
     FM161330 00000KT 3SM BR BKN004
     FM161400 29003KT P6SM SCT040
     FM170000 11003KT P6SM FEW080
     FM170900 13003KT 4SM BR SCT080=

USA.gov is the U.S. government's official web portal to all federal, state and local government web resources and services.